createdAt,value
2022-09-27T00:00:05.904Z,33.47
2022-09-27T00:02:35.149Z,32.63
2022-09-27T00:05:04.442Z,36.75
2022-09-27T00:07:33.706Z,33.35
2022-09-27T00:10:02.903Z,37.05
2022-09-27T00:12:34.290Z,29.77
2022-09-27T00:15:03.671Z,31.85
2022-09-27T00:17:33.141Z,33.08
2022-09-27T00:20:02.869Z,33.78
2022-09-27T00:22:33.820Z,31.35
2022-09-27T00:25:03.060Z,31.77
2022-09-27T00:27:32.515Z,35.60
2022-09-27T00:30:01.875Z,39.38
2022-09-27T00:32:31.123Z,38.47
2022-09-27T00:35:00.785Z,54.20
2022-09-27T00:37:30.036Z,51.03
2022-09-27T00:39:59.194Z,47.58
2022-09-27T00:42:28.386Z,55.67
2022-09-27T00:45:09.183Z,55.28
2022-09-27T00:47:53.217Z,53.55
2022-09-27T00:50:24.391Z,48.85
2022-09-27T00:53:04.376Z,51.10
2022-09-27T00:55:39.753Z,50.10
2022-09-27T00:58:09.666Z,41.55
2022-09-27T01:00:44.331Z,41.88
2022-09-27T01:03:21.619Z,42.20
2022-09-27T01:05:51.491Z,40.15
2022-09-27T01:08:20.599Z,39.63
2022-09-27T01:11:15.633Z,40.92
2022-09-27T01:14:00.096Z,40.83
2022-09-27T01:16:40.451Z,42.13
2022-09-27T01:19:30.750Z,41.95
2022-09-27T01:22:09.276Z,41.40
2022-09-27T01:24:52.852Z,39.47
2022-09-27T01:27:34.893Z,40.40
2022-09-27T01:30:27.847Z,40.40
2022-09-27T01:33:07.114Z,39.22
2022-09-27T01:36:00.832Z,41.40
2022-09-27T01:38:49.695Z,39.35
2022-09-27T01:41:38.796Z,40.67
2022-09-27T01:44:09.996Z,41.72
2022-09-27T01:46:44.820Z,36.95
2022-09-27T01:49:20.524Z,37.35
2022-09-27T01:51:58.166Z,38.47
2022-09-27T01:54:37.636Z,36.75
2022-09-27T01:57:11.727Z,33.05
2022-09-27T01:59:51.681Z,34.17
2022-09-27T02:02:26.397Z,34.75
2022-09-27T02:04:59.756Z,30.77
2022-09-27T02:07:36.443Z,32.03
2022-09-27T02:10:11.026Z,30.95
2022-09-27T02:12:51.911Z,26.63
2022-09-27T02:15:21.374Z,28.45
2022-09-27T02:18:02.963Z,29.20
2022-09-27T02:20:34.161Z,28.25
2022-09-27T02:23:42.229Z,27.77
2022-09-27T02:26:37.108Z,29.10
2022-09-27T02:29:12.802Z,27.42
2022-09-27T02:31:42.083Z,25.90
2022-09-27T02:34:13.320Z,26.67
2022-09-27T02:36:44.044Z,26.52
2022-09-27T02:39:13.622Z,28.00
2022-09-27T02:41:43.032Z,27.40
2022-09-27T02:44:16.833Z,25.77
2022-09-27T02:47:06.108Z,25.88
2022-09-27T02:49:38.272Z,26.55
2022-09-27T02:52:24.907Z,26.63
2022-09-27T02:55:05.373Z,25.30
2022-09-27T02:57:49.055Z,24.40
2022-09-27T03:00:22.613Z,24.67
2022-09-27T03:03:16.138Z,24.88
2022-09-27T03:05:55.156Z,26.33
2022-09-27T03:08:27.323Z,25.52
2022-09-27T03:10:56.366Z,26.47
2022-09-27T03:13:25.399Z,27.27
2022-09-27T03:15:57.090Z,28.10
2022-09-27T03:18:29.982Z,25.42
2022-09-27T03:20:59.292Z,24.58
2022-09-27T03:23:29.028Z,26.52
2022-09-27T03:25:59.017Z,25.85
2022-09-27T03:28:31.019Z,28.48
2022-09-27T03:31:00.388Z,27.08
2022-09-27T03:33:29.575Z,25.77
2022-09-27T03:35:58.757Z,25.85
2022-09-27T03:38:27.967Z,27.85
2022-09-27T03:40:57.263Z,29.75
2022-09-27T03:43:26.907Z,28.55
2022-09-27T03:45:56.190Z,28.38
2022-09-27T03:48:28.137Z,27.50
2022-09-27T03:50:57.566Z,27.33
2022-09-27T03:53:26.751Z,28.83
2022-09-27T03:55:56.281Z,29.23
2022-09-27T03:58:25.454Z,26.63
2022-09-27T04:00:54.867Z,25.85
2022-09-27T04:03:24.161Z,25.73
2022-09-27T04:05:53.272Z,25.58
2022-09-27T04:08:24.554Z,25.80
2022-09-27T04:10:54.034Z,26.27
2022-09-27T04:13:24.074Z,24.85
2022-09-27T04:15:53.700Z,26.02
2022-09-27T04:18:22.883Z,24.40
2022-09-27T04:20:52.050Z,25.17
2022-09-27T04:23:24.373Z,25.98
2022-09-27T04:25:55.873Z,26.77
2022-09-27T04:28:25.088Z,26.52
2022-09-27T04:30:55.782Z,27.45
2022-09-27T04:33:25.523Z,27.70
2022-09-27T04:36:14.306Z,25.38
2022-09-27T04:38:43.635Z,27.23
2022-09-27T04:41:13.217Z,26.60
2022-09-27T04:43:43.543Z,23.88
2022-09-27T04:46:12.730Z,24.83
2022-09-27T04:48:42.740Z,26.40
2022-09-27T04:51:12.638Z,25.05
2022-09-27T04:53:41.804Z,26.15
2022-09-27T04:56:11.382Z,26.63
2022-09-27T04:58:41.189Z,26.38
2022-09-27T05:01:13.818Z,26.48
2022-09-27T05:06:15.016Z,25.65
2022-09-27T05:08:44.179Z,25.48
2022-09-27T05:11:13.288Z,25.85
2022-09-27T05:13:42.553Z,24.90
2022-09-27T05:16:12.603Z,26.38
2022-09-27T05:18:41.886Z,25.10
2022-09-27T05:21:11.120Z,24.20
2022-09-27T05:23:41.946Z,24.77
2022-09-27T05:26:13.232Z,23.92
2022-09-27T05:28:45.615Z,24.33
2022-09-27T05:31:15.741Z,25.70
2022-09-27T05:33:44.981Z,25.67
2022-09-27T05:36:14.325Z,24.70
2022-09-27T05:38:44.352Z,24.75
2022-09-27T05:41:13.702Z,24.15
2022-09-27T05:43:42.974Z,23.85
2022-09-27T05:46:12.208Z,24.30
2022-09-27T05:48:42.385Z,24.17
2022-09-27T05:51:11.955Z,24.10
2022-09-27T05:53:41.197Z,24.50
2022-09-27T05:56:10.610Z,23.38
2022-09-27T05:58:39.884Z,22.05
2022-09-27T06:01:09.939Z,22.08
2022-09-27T06:03:39.428Z,23.65
2022-09-27T06:06:09.281Z,22.73
2022-09-27T06:08:44.741Z,22.45
2022-09-27T06:11:18.830Z,22.60
2022-09-27T06:13:55.065Z,21.42
2022-09-27T06:16:25.743Z,21.92
2022-09-27T06:18:55.138Z,22.50
2022-09-27T06:21:28.509Z,22.10
2022-09-27T06:26:31.876Z,21.25
2022-09-27T06:29:00.893Z,22.02
2022-09-27T06:31:31.687Z,21.58
2022-09-27T06:34:01.817Z,20.73
2022-09-27T06:36:33.425Z,26.40
2022-09-27T06:39:03.061Z,22.02
2022-09-27T06:41:32.448Z,20.55
2022-09-27T06:44:02.765Z,23.63
2022-09-27T06:46:31.948Z,22.67
2022-09-27T06:49:03.357Z,20.95
2022-09-27T06:51:32.546Z,21.65
2022-09-27T06:54:02.497Z,20.10
2022-09-27T06:56:31.792Z,22.20
2022-09-27T06:59:20.525Z,19.98
2022-09-27T07:01:49.874Z,20.38
2022-09-27T07:04:20.255Z,23.83
2022-09-27T07:06:49.519Z,20.67
2022-09-27T07:09:21.055Z,19.92
2022-09-27T07:11:50.365Z,22.25
2022-09-27T07:14:19.613Z,21.38
2022-09-27T07:16:48.841Z,21.15
2022-09-27T07:19:22.003Z,21.40
2022-09-27T07:21:54.130Z,22.85
2022-09-27T07:24:23.375Z,21.58
2022-09-27T07:26:52.524Z,20.75
2022-09-27T07:29:24.942Z,21.00
2022-09-27T07:31:57.027Z,20.85
2022-09-27T07:34:26.315Z,21.85
2022-09-27T07:36:56.477Z,20.52
2022-09-27T07:39:25.777Z,22.08
2022-09-27T07:41:55.357Z,20.65
2022-09-27T07:44:24.555Z,19.73
2022-09-27T07:46:53.857Z,21.33
2022-09-27T07:49:29.096Z,20.25
2022-09-27T07:51:58.432Z,21.70
2022-09-27T07:54:27.607Z,20.45
2022-09-27T07:56:57.347Z,23.48
2022-09-27T07:59:26.798Z,25.13
2022-09-27T08:02:00.801Z,21.65
2022-09-27T08:04:37.839Z,21.73
2022-09-27T08:07:12.360Z,22.53
2022-09-27T08:09:51.358Z,23.50
2022-09-27T08:12:23.906Z,20.27
2022-09-27T08:14:53.479Z,21.42
2022-09-27T08:17:29.324Z,19.98
2022-09-27T08:20:00.631Z,22.00
2022-09-27T08:22:29.797Z,22.08
2022-09-27T08:24:58.919Z,22.30
2022-09-27T08:27:27.891Z,21.05
2022-09-27T08:29:57.391Z,22.15
2022-09-27T08:32:26.844Z,20.60
2022-09-27T08:34:55.976Z,22.02
2022-09-27T08:37:25.504Z,22.00
2022-09-27T08:39:54.649Z,21.42
2022-09-27T08:42:49.908Z,23.13
2022-09-27T08:45:33.074Z,20.75
2022-09-27T08:48:04.687Z,21.73
2022-09-27T08:50:40.376Z,21.33
2022-09-27T08:53:31.352Z,22.73
2022-09-27T08:56:06.150Z,19.40
2022-09-27T08:58:41.552Z,21.90
2022-09-27T09:01:20.896Z,22.15
2022-09-27T09:04:03.083Z,20.70
2022-09-27T09:07:00.170Z,21.05
2022-09-27T09:09:52.863Z,20.95
2022-09-27T09:12:52.021Z,20.70
2022-09-27T09:16:02.101Z,19.48
2022-09-27T09:18:58.279Z,20.50
2022-09-27T09:21:35.875Z,22.05
2022-09-27T09:24:27.476Z,20.38
2022-09-27T09:27:14.067Z,20.55
2022-09-27T09:30:04.456Z,22.77
2022-09-27T09:32:54.660Z,22.05
2022-09-27T09:35:29.573Z,22.58
2022-09-27T09:38:02.888Z,22.58
2022-09-27T09:40:50.567Z,21.23
2022-09-27T09:43:27.883Z,43.80
2022-09-27T09:46:11.273Z,22.05
2022-09-27T09:48:48.342Z,23.27
2022-09-27T09:51:24.093Z,24.42
2022-09-27T09:54:00.049Z,23.92
2022-09-27T09:56:34.455Z,23.17
2022-09-27T09:59:08.160Z,24.08
2022-09-27T10:01:44.108Z,24.33
2022-09-27T10:04:23.045Z,29.52
2022-09-27T10:06:53.312Z,27.90
2022-09-27T10:09:28.045Z,24.20
2022-09-27T10:11:57.583Z,23.77
2022-09-27T10:14:29.781Z,24.15
2022-09-27T10:17:03.428Z,24.02
2022-09-27T10:19:35.838Z,26.70
2022-09-27T10:22:18.523Z,26.85
2022-09-27T10:25:04.756Z,26.58
2022-09-27T10:27:48.515Z,24.75
2022-09-27T10:30:34.729Z,24.63
2022-09-27T10:33:21.503Z,25.45
2022-09-27T10:35:52.469Z,25.27
2022-09-27T10:38:25.618Z,27.27
2022-09-27T10:40:57.430Z,26.60
2022-09-27T10:43:29.997Z,25.70
2022-09-27T10:48:34.885Z,26.75
2022-09-27T10:51:07.161Z,27.75
2022-09-27T10:53:39.050Z,25.63
2022-09-27T10:56:08.397Z,27.57
2022-09-27T10:58:39.769Z,26.50
2022-09-27T11:01:13.689Z,26.38
2022-09-27T11:03:56.409Z,26.58
2022-09-27T11:06:29.514Z,27.42
2022-09-27T11:09:13.329Z,26.67
2022-09-27T11:11:42.503Z,27.80
2022-09-27T11:14:27.308Z,26.70
2022-09-27T11:17:19.103Z,26.73
2022-09-27T11:20:50.003Z,26.17
2022-09-27T11:24:00.226Z,26.27
2022-09-27T11:26:48.275Z,27.05
2022-09-27T11:29:34.698Z,28.27
2022-09-27T11:32:11.839Z,27.88
2022-09-27T11:35:22.100Z,28.55
2022-09-27T11:38:25.039Z,30.58
2022-09-27T11:41:31.775Z,30.27
2022-09-27T11:44:04.358Z,32.58
2022-09-27T11:46:41.954Z,31.02
2022-09-27T11:49:13.669Z,30.70
2022-09-27T11:52:03.086Z,30.08
2022-09-27T11:55:11.564Z,29.45
2022-09-27T11:57:48.945Z,30.58
2022-09-27T12:00:19.341Z,30.77
2022-09-27T12:02:50.834Z,30.60
2022-09-27T12:05:29.742Z,30.63
2022-09-27T12:08:38.136Z,31.55
2022-09-27T12:11:14.861Z,31.17
2022-09-27T12:13:51.807Z,31.83
2022-09-27T12:16:22.804Z,32.17
2022-09-27T12:18:56.035Z,31.95
2022-09-27T12:21:25.933Z,32.15
2022-09-27T12:23:59.316Z,30.77
2022-09-27T12:26:46.260Z,32.28
2022-09-27T12:29:27.114Z,32.20
2022-09-27T12:32:13.680Z,31.95
2022-09-27T12:34:47.375Z,30.00
2022-09-27T12:37:21.177Z,30.52
2022-09-27T12:39:58.172Z,30.38
2022-09-27T12:42:35.659Z,27.80
2022-09-27T12:45:05.152Z,30.15
2022-09-27T12:47:38.334Z,29.25
2022-09-27T12:50:27.367Z,29.83
2022-09-27T12:53:05.786Z,29.45
2022-09-27T12:55:55.280Z,31.38
2022-09-27T12:58:39.545Z,30.88
2022-09-27T13:01:09.837Z,30.88
2022-09-27T13:03:51.633Z,30.50
2022-09-27T13:06:58.225Z,32.80
2022-09-27T13:09:46.609Z,31.60
2022-09-27T13:12:20.687Z,34.92
2022-09-27T13:15:16.748Z,32.63
2022-09-27T13:17:46.765Z,32.75
2022-09-27T13:20:36.996Z,29.40
2022-09-27T13:23:27.311Z,30.35
2022-09-27T13:26:05.084Z,30.38
2022-09-27T13:28:38.059Z,31.42
2022-09-27T13:31:14.062Z,30.95
2022-09-27T13:33:51.370Z,31.35
2022-09-27T13:36:30.911Z,30.90
2022-09-27T13:39:03.608Z,31.92
2022-09-27T13:44:34.891Z,32.33
2022-09-27T13:47:14.562Z,32.38
2022-09-27T13:49:47.146Z,32.78
2022-09-27T13:52:39.803Z,32.65
2022-09-27T13:55:48.379Z,31.58
2022-09-27T13:58:56.927Z,32.22
2022-09-27T14:01:46.063Z,32.42
2022-09-27T14:04:29.042Z,32.08
2022-09-27T14:09:33.711Z,31.00
2022-09-27T14:12:07.179Z,32.53
2022-09-27T14:14:38.138Z,32.53
2022-09-27T14:17:10.396Z,32.00
2022-09-27T14:19:43.394Z,31.88
2022-09-27T14:24:58.476Z,32.63
2022-09-27T14:27:30.863Z,31.20
2022-09-27T14:30:11.752Z,32.20
2022-09-27T14:32:50.369Z,32.58
2022-09-27T14:35:40.752Z,33.88
2022-09-27T14:38:36.022Z,33.58
2022-09-27T14:41:04.473Z,33.28
2022-09-27T14:43:34.600Z,32.28
2022-09-27T14:46:08.235Z,33.95
2022-09-27T14:48:42.376Z,34.33
2022-09-27T14:51:14.832Z,35.80
2022-09-27T14:53:47.431Z,35.50
2022-09-27T14:56:21.472Z,33.90
2022-09-27T14:58:55.501Z,33.85
2022-09-27T15:01:25.603Z,35.20
2022-09-27T15:03:55.160Z,34.95
2022-09-27T15:06:26.282Z,33.80
2022-09-27T15:08:56.559Z,33.42
2022-09-27T15:11:25.974Z,33.90
2022-09-27T15:13:56.439Z,32.75
2022-09-27T15:16:26.733Z,35.35
2022-09-27T15:19:08.512Z,33.67
2022-09-27T15:21:40.388Z,34.08
2022-09-27T15:24:48.746Z,33.57
2022-09-27T15:27:24.053Z,31.00
2022-09-27T15:29:56.067Z,33.15
2022-09-27T15:32:29.850Z,34.28
2022-09-27T15:35:07.480Z,32.85
2022-09-27T15:37:40.098Z,31.48
2022-09-27T15:40:48.454Z,32.47
2022-09-27T15:43:32.159Z,31.85
2022-09-27T15:46:05.041Z,32.53
2022-09-27T15:48:38.851Z,34.08
2022-09-27T15:51:47.171Z,32.05
2022-09-27T15:54:21.093Z,33.42
2022-09-27T15:56:55.265Z,35.03
2022-09-27T15:59:28.829Z,34.33
2022-09-27T16:02:07.582Z,33.55
2022-09-27T16:04:37.283Z,33.33
2022-09-27T16:07:10.383Z,32.53
2022-09-27T16:09:40.073Z,33.50
2022-09-27T16:12:10.639Z,32.90
2022-09-27T16:14:39.851Z,35.30
2022-09-27T16:17:08.991Z,33.33
2022-09-27T16:19:38.303Z,35.05
2022-09-27T16:22:07.537Z,34.58
2022-09-27T16:24:36.729Z,33.08
2022-09-27T16:27:06.272Z,35.90
2022-09-27T16:29:35.451Z,34.67
2022-09-27T16:32:04.705Z,36.97
2022-09-27T16:34:33.917Z,35.53
2022-09-27T16:37:05.069Z,34.58
2022-09-27T16:39:34.500Z,36.28
2022-09-27T16:42:07.403Z,36.03
2022-09-27T16:44:37.387Z,35.90
2022-09-27T16:47:08.154Z,36.55
2022-09-27T16:49:57.059Z,37.05
2022-09-27T16:52:26.278Z,37.95
2022-09-27T16:54:55.466Z,37.65
2022-09-27T16:57:24.630Z,37.38
2022-09-27T17:03:56.855Z,36.33
2022-09-27T17:06:27.272Z,38.13
2022-09-27T17:08:57.467Z,37.95
2022-09-27T17:11:26.732Z,39.45
2022-09-27T17:13:57.295Z,37.60
2022-09-27T17:16:27.272Z,39.17
2022-09-27T17:18:56.525Z,37.85
2022-09-27T17:21:25.688Z,37.67
2022-09-27T17:23:54.942Z,37.70
2022-09-27T17:26:25.601Z,39.60
2022-09-27T17:28:58.669Z,38.40
2022-09-27T17:31:28.514Z,40.03
2022-09-27T17:33:58.159Z,38.25
2022-09-27T17:36:31.362Z,39.00
2022-09-27T17:39:01.027Z,38.67
2022-09-27T17:41:33.457Z,38.28
2022-09-27T17:44:04.523Z,38.45
2022-09-27T17:46:36.999Z,40.05
2022-09-27T17:49:26.243Z,35.72
2022-09-27T17:51:55.953Z,37.20
2022-09-27T17:54:29.144Z,36.05
2022-09-27T17:56:58.273Z,35.22
2022-09-27T17:59:28.292Z,34.45
2022-09-27T18:01:57.668Z,34.78
2022-09-27T18:04:26.895Z,35.60
2022-09-27T18:06:56.003Z,34.10
2022-09-27T18:09:25.426Z,33.30
2022-09-27T18:11:55.559Z,32.90
2022-09-27T18:14:28.084Z,32.83
2022-09-27T18:16:58.892Z,33.33
2022-09-27T18:19:28.183Z,34.30
2022-09-27T18:21:57.408Z,33.20
2022-09-27T18:24:27.611Z,31.40
2022-09-27T18:26:58.462Z,32.80
2022-09-27T18:29:30.087Z,33.50
2022-09-27T18:31:59.514Z,32.67
2022-09-27T18:34:28.715Z,32.45
2022-09-27T18:36:57.946Z,32.53
2022-09-27T18:39:27.169Z,32.83
2022-09-27T18:41:58.161Z,32.88
2022-09-27T18:44:27.424Z,32.42
2022-09-27T18:46:56.729Z,32.58
2022-09-27T18:49:28.567Z,30.25
2022-09-27T18:51:59.809Z,31.58
2022-09-27T18:54:29.039Z,32.55
2022-09-27T18:56:58.553Z,34.33
2022-09-27T18:59:27.907Z,31.55
2022-09-27T19:01:57.027Z,31.83
2022-09-27T19:04:27.230Z,30.98
2022-09-27T19:06:58.232Z,31.83
2022-09-27T19:09:28.689Z,31.52
2022-09-27T19:11:58.019Z,32.20
2022-09-27T19:14:27.431Z,30.67
2022-09-27T19:16:56.615Z,32.97
2022-09-27T19:19:25.800Z,31.92
2022-09-27T19:21:55.064Z,30.98
2022-09-27T19:24:24.215Z,32.30
2022-09-27T19:26:55.045Z,30.40
2022-09-27T19:29:24.165Z,30.90
2022-09-27T19:31:53.297Z,29.20
2022-09-27T19:34:22.508Z,29.25
2022-09-27T19:36:51.663Z,28.45
2022-09-27T19:39:20.959Z,29.73
2022-09-27T19:41:50.176Z,30.27
2022-09-27T19:44:19.389Z,29.27
2022-09-27T19:46:48.799Z,29.52
2022-09-27T19:49:20.150Z,26.75
2022-09-27T19:51:50.321Z,28.85
2022-09-27T19:54:19.519Z,26.90
2022-09-27T19:56:50.670Z,27.98
2022-09-27T19:59:20.034Z,29.15
2022-09-27T20:01:49.762Z,27.10
2022-09-27T20:04:19.052Z,26.75
2022-09-27T20:06:48.713Z,26.50
2022-09-27T20:09:18.083Z,26.83
2022-09-27T20:11:48.739Z,24.98
2022-09-27T20:14:17.994Z,24.25
2022-09-27T20:16:47.203Z,24.20
2022-09-27T20:19:16.467Z,24.67
2022-09-27T20:21:47.213Z,23.30
2022-09-27T20:24:16.524Z,25.05
2022-09-27T20:26:46.149Z,24.63
2022-09-27T20:29:15.417Z,24.85
2022-09-27T20:32:09.108Z,24.15
2022-09-27T20:34:34.401Z,24.35
2022-09-27T20:37:03.539Z,24.40
2022-09-27T20:39:32.675Z,23.92
2022-09-27T20:42:01.890Z,23.70
2022-09-27T20:44:31.331Z,24.05
2022-09-27T20:47:00.516Z,24.48
2022-09-27T20:49:29.798Z,25.48
2022-09-27T20:51:59.288Z,24.60
2022-09-27T20:54:28.670Z,24.30
2022-09-27T20:56:57.938Z,24.13
2022-09-27T20:59:27.440Z,23.98
2022-09-27T21:01:56.676Z,24.75
2022-09-27T21:04:25.852Z,35.45
2022-09-27T21:06:55.123Z,28.95
2022-09-27T21:09:24.301Z,25.13
2022-09-27T21:11:55.175Z,25.23
2022-09-27T21:14:24.436Z,35.80
2022-09-27T21:16:53.788Z,33.47
2022-09-27T21:19:22.967Z,26.20
2022-09-27T21:21:54.013Z,27.13
2022-09-27T21:24:23.359Z,24.63
2022-09-27T21:26:52.444Z,25.55
2022-09-27T21:29:22.372Z,26.30
2022-09-27T21:31:51.654Z,26.73
2022-09-27T21:34:20.847Z,25.80
2022-09-27T21:36:50.059Z,25.33
2022-09-27T21:39:19.290Z,26.60
2022-09-27T21:41:48.391Z,25.83
2022-09-27T21:44:18.515Z,24.33
2022-09-27T21:46:47.796Z,25.55
2022-09-27T21:49:17.225Z,25.60
2022-09-27T21:51:46.652Z,25.17
2022-09-27T21:54:17.173Z,25.70
2022-09-27T21:56:46.949Z,25.70
2022-09-27T21:59:19.719Z,27.15
2022-09-27T22:04:18.049Z,26.73
2022-09-27T22:06:47.669Z,27.42
2022-09-27T22:09:18.508Z,25.52
2022-09-27T22:11:48.884Z,25.35
2022-09-27T22:14:20.570Z,26.60
2022-09-27T22:16:50.029Z,26.25
2022-09-27T22:19:19.562Z,27.52
2022-09-27T22:21:48.949Z,27.83
2022-09-27T22:24:19.829Z,26.65
2022-09-27T22:29:39.888Z,27.92
2022-09-27T22:32:09.100Z,27.27
2022-09-27T22:34:38.419Z,28.10
2022-09-27T22:37:07.541Z,26.20
2022-09-27T22:39:36.961Z,27.88
2022-09-27T22:42:06.306Z,28.33
2022-09-27T22:44:36.639Z,28.85
2022-09-27T22:47:05.841Z,27.73
2022-09-27T22:49:35.034Z,28.02
2022-09-27T22:52:05.532Z,28.15
2022-09-27T22:54:34.757Z,27.35
2022-09-27T22:57:04.146Z,28.77
2022-09-27T22:59:34.153Z,28.80
2022-09-27T23:02:06.983Z,28.15
2022-09-27T23:04:37.272Z,30.35
2022-09-27T23:07:06.578Z,29.58
2022-09-27T23:09:35.773Z,29.27
2022-09-27T23:12:05.058Z,30.92
2022-09-27T23:14:34.256Z,29.45
2022-09-27T23:17:03.388Z,29.67
2022-09-27T23:19:42.347Z,29.48
2022-09-27T23:22:14.484Z,29.00
2022-09-27T23:24:43.672Z,29.50
2022-09-27T23:27:32.457Z,30.48
2022-09-27T23:30:02.258Z,29.60
2022-09-27T23:32:34.615Z,30.55
2022-09-27T23:35:04.392Z,30.88
2022-09-27T23:37:33.855Z,29.85
2022-09-27T23:40:03.378Z,29.27
2022-09-27T23:42:32.581Z,30.80
2022-09-27T23:45:05.271Z,29.90
2022-09-27T23:47:34.753Z,31.15
2022-09-27T23:50:09.733Z,30.95
2022-09-27T23:52:39.158Z,30.70
2022-09-27T23:55:08.942Z,30.27
2022-09-27T23:57:41.163Z,30.88
